sensor_id;sensor_type;location;lat;lon;timestamp;pressure;altitude;pressure_sealevel;temperature;humidity
19023;BME280;35226;48.606;8.858;2023-09-08T00:01:20;96555.72;;;17.95;100.00
19023;BME280;35226;48.606;8.858;2023-09-08T00:03:46;96554.28;;;17.99;100.00
19023;BME280;35226;48.606;8.858;2023-09-08T00:06:11;96563.91;;;17.98;100.00
19023;BME280;35226;48.606;8.858;2023-09-08T00:08:37;96558.81;;;17.97;100.00
19023;BME280;35226;48.606;8.858;2023-09-08T00:11:02;96553.81;;;18.01;100.00
19023;BME280;35226;48.606;8.858;2023-09-08T00:13:28;96556.84;;;18.03;100.00
19023;BME280;35226;48.606;8.858;2023-09-08T00:15:53;96558.13;;;18.02;100.00
19023;BME280;35226;48.606;8.858;2023-09-08T00:18:18;96555.81;;;18.00;100.00
19023;BME280;35226;48.606;8.858;2023-09-08T00:20:44;96553.91;;;17.92;100.00
19023;BME280;35226;48.606;8.858;2023-09-08T00:23:09;96555.44;;;17.93;100.00
19023;BME280;35226;48.606;8.858;2023-09-08T00:25:35;96549.78;;;17.87;100.00
19023;BME280;35226;48.606;8.858;2023-09-08T00:28:00;96552.75;;;17.84;100.00
19023;BME280;35226;48.606;8.858;2023-09-08T00:30:26;96550.19;;;17.80;100.00
19023;BME280;35226;48.606;8.858;2023-09-08T00:32:51;96544.25;;;17.72;100.00
19023;BME280;35226;48.606;8.858;2023-09-08T00:35:17;96547.13;;;17.63;100.00
19023;BME280;35226;48.606;8.858;2023-09-08T00:37:42;96542.81;;;17.62;100.00
19023;BME280;35226;48.606;8.858;2023-09-08T00:40:08;96542.97;;;17.59;100.00
19023;BME280;35226;48.606;8.858;2023-09-08T00:42:34;96541.81;;;17.65;100.00
19023;BME280;35226;48.606;8.858;2023-09-08T00:44:59;96538.25;;;17.65;100.00
19023;BME280;35226;48.606;8.858;2023-09-08T00:47:25;96538.25;;;17.65;100.00
19023;BME280;35226;48.606;8.858;2023-09-08T00:49:50;96540.19;;;17.59;100.00
19023;BME280;35226;48.606;8.858;2023-09-08T00:52:17;96533.81;;;17.58;100.00
19023;BME280;35226;48.606;8.858;2023-09-08T00:54:42;96538.66;;;17.43;100.00
19023;BME280;35226;48.606;8.858;2023-09-08T00:57:09;96539.81;;;17.36;100.00
19023;BME280;35226;48.606;8.858;2023-09-08T00:59:35;96542.72;;;17.42;100.00
19023;BME280;35226;48.606;8.858;2023-09-08T01:02:02;96536.72;;;17.34;100.00
19023;BME280;35226;48.606;8.858;2023-09-08T01:04:28;96537.41;;;17.29;100.00
19023;BME280;35226;48.606;8.858;2023-09-08T01:06:55;96535.09;;;17.28;100.00
19023;BME280;35226;48.606;8.858;2023-09-08T01:09:21;96542.41;;;17.25;100.00
19023;BME280;35226;48.606;8.858;2023-09-08T01:11:48;96545.19;;;17.25;100.00
19023;BME280;35226;48.606;8.858;2023-09-08T01:14:18;96537.41;;;17.29;100.00
19023;BME280;35226;48.606;8.858;2023-09-08T01:16:45;96541.56;;;17.19;100.00
19023;BME280;35226;48.606;8.858;2023-09-08T01:19:13;96542.72;;;17.13;100.00
19023;BME280;35226;48.606;8.858;2023-09-08T01:22:16;96540.31;;;17.20;100.00
19023;BME280;35226;48.606;8.858;2023-09-08T01:27:39;96532.78;;;17.26;100.00
19023;BME280;35226;48.606;8.858;2023-09-08T01:30:06;96537.50;;;17.20;100.00
19023;BME280;35226;48.606;8.858;2023-09-08T01:32:33;96540.47;;;17.17;100.00
19023;BME280;35226;48.606;8.858;2023-09-08T01:35:00;96540.47;;;17.17;100.00
19023;BME280;35226;48.606;8.858;2023-09-08T01:37:26;96532.09;;;17.17;100.00
19023;BME280;35226;48.606;8.858;2023-09-08T01:39:52;96532.03;;;17.11;100.00
19023;BME280;35226;48.606;8.858;2023-09-08T01:42:17;96525.38;;;17.09;100.00
19023;BME280;35226;48.606;8.858;2023-09-08T01:44:43;96534.13;;;17.01;100.00
19023;BME280;35226;48.606;8.858;2023-09-08T01:47:09;96527.50;;;16.99;100.00
19023;BME280;35226;48.606;8.858;2023-09-08T01:49:35;96527.09;;;16.91;100.00
19023;BME280;35226;48.606;8.858;2023-09-08T01:52:00;96529.50;;;16.84;100.00
19023;BME280;35226;48.606;8.858;2023-09-08T01:54:26;96528.06;;;16.74;100.00
19023;BME280;35226;48.606;8.858;2023-09-08T01:56:51;96521.78;;;16.64;100.00
19023;BME280;35226;48.606;8.858;2023-09-08T01:59:17;96522.88;;;16.57;100.00
19023;BME280;35226;48.606;8.858;2023-09-08T02:01:42;96523.06;;;16.54;100.00
19023;BME280;35226;48.606;8.858;2023-09-08T02:04:08;96524.72;;;16.60;100.00
19023;BME280;35226;48.606;8.858;2023-09-08T02:06:34;96530.63;;;16.62;100.00
19023;BME280;35226;48.606;8.858;2023-09-08T02:09:00;96518.38;;;16.60;100.00
19023;BME280;35226;48.606;8.858;2023-09-08T02:11:25;96525.50;;;16.61;100.00
19023;BME280;35226;48.606;8.858;2023-09-08T02:13:51;96515.69;;;16.65;100.00
19023;BME280;35226;48.606;8.858;2023-09-08T02:16:17;96516.53;;;16.57;100.00
19023;BME280;35226;48.606;8.858;2023-09-08T02:18:43;96514.03;;;16.59;100.00
19023;BME280;35226;48.606;8.858;2023-09-08T02:21:09;96503.81;;;16.56;100.00
19023;BME280;35226;48.606;8.858;2023-09-08T02:23:34;96518.53;;;16.56;100.00
19023;BME280;35226;48.606;8.858;2023-09-08T02:26:00;96509.31;;;16.50;100.00
19023;BME280;35226;48.606;8.858;2023-09-08T02:28:26;96509.00;;;16.48;100.00
19023;BME280;35226;48.606;8.858;2023-09-08T02:30:52;96512.41;;;16.52;100.00
19023;BME280;35226;48.606;8.858;2023-09-08T02:33:17;96512.88;;;16.51;100.00
19023;BME280;35226;48.606;8.858;2023-09-08T02:35:44;96519.47;;;16.39;100.00
19023;BME280;35226;48.606;8.858;2023-09-08T02:38:10;96526.00;;;16.36;100.00
19023;BME280;35226;48.606;8.858;2023-09-08T02:40:36;96517.34;;;16.34;100.00
19023;BME280;35226;48.606;8.858;2023-09-08T02:43:03;96521.44;;;16.23;100.00
19023;BME280;35226;48.606;8.858;2023-09-08T02:45:29;96527.66;;;16.18;100.00
19023;BME280;35226;48.606;8.858;2023-09-08T02:47:55;96520.28;;;16.15;100.00
19023;BME280;35226;48.606;8.858;2023-09-08T02:50:21;96523.53;;;16.14;100.00
19023;BME280;35226;48.606;8.858;2023-09-08T02:52:47;96521.31;;;16.18;100.00
19023;BME280;35226;48.606;8.858;2023-09-08T02:55:13;96520.28;;;16.15;100.00
19023;BME280;35226;48.606;8.858;2023-09-08T02:57:39;96520.44;;;16.12;100.00
19023;BME280;35226;48.606;8.858;2023-09-08T03:00:06;96512.25;;;16.08;100.00
19023;BME280;35226;48.606;8.858;2023-09-08T03:02:34;96512.13;;;16.03;100.00
19023;BME280;35226;48.606;8.858;2023-09-08T03:05:00;96523.34;;;15.94;100.00
19023;BME280;35226;48.606;8.858;2023-09-08T03:07:27;96518.53;;;15.94;100.00
19023;BME280;35226;48.606;8.858;2023-09-08T03:09:53;96523.56;;;15.81;100.00
19023;BME280;35226;48.606;8.858;2023-09-08T03:12:20;96517.63;;;15.88;100.00
19023;BME280;35226;48.606;8.858;2023-09-08T03:14:45;96517.47;;;15.91;100.00
19023;BME280;35226;48.606;8.858;2023-09-08T03:17:11;96514.56;;;15.86;100.00
19023;BME280;35226;48.606;8.858;2023-09-08T03:19:38;96523.09;;;15.82;100.00
19023;BME280;35226;48.606;8.858;2023-09-08T03:22:05;96512.16;;;15.70;100.00
19023;BME280;35226;48.606;8.858;2023-09-08T03:24:31;96521.38;;;15.85;100.00
19023;BME280;35226;48.606;8.858;2023-09-08T03:26:56;96513.81;;;15.85;100.00
19023;BME280;35226;48.606;8.858;2023-09-08T03:29:23;96523.91;;;15.74;100.00
19023;BME280;35226;48.606;8.858;2023-09-08T03:31:48;96523.31;;;15.70;100.00
19023;BME280;35226;48.606;8.858;2023-09-08T03:34:14;96521.91;;;15.74;100.00
19023;BME280;35226;48.606;8.858;2023-09-08T03:36:40;96519.28;;;15.71;100.00
19023;BME280;35226;48.606;8.858;2023-09-08T03:39:05;96519.13;;;15.74;100.00
19023;BME280;35226;48.606;8.858;2023-09-08T03:41:31;96522.78;;;15.80;100.00
19023;BME280;35226;48.606;8.858;2023-09-08T03:43:56;96512.31;;;15.75;100.00
19023;BME280;35226;48.606;8.858;2023-09-08T03:46:22;96510.03;;;15.65;100.00
19023;BME280;35226;48.606;8.858;2023-09-08T03:48:49;96517.00;;;15.60;100.00
19023;BME280;35226;48.606;8.858;2023-09-08T03:51:15;96518.09;;;15.53;100.00
19023;BME280;35226;48.606;8.858;2023-09-08T03:53:40;96521.69;;;15.54;100.00
19023;BME280;35226;48.606;8.858;2023-09-08T03:56:06;96527.25;;;15.54;100.00
19023;BME280;35226;48.606;8.858;2023-09-08T03:58:31;96524.78;;;15.56;100.00
19023;BME280;35226;48.606;8.858;2023-09-08T04:00:57;96520.41;;;15.64;100.00
19023;BME280;35226;48.606;8.858;2023-09-08T04:03:22;96518.97;;;15.69;100.00
19023;BME280;35226;48.606;8.858;2023-09-08T04:05:48;96525.50;;;15.66;100.00
19023;BME280;35226;48.606;8.858;2023-09-08T04:08:14;96519.75;;;15.69;100.00
19023;BME280;35226;48.606;8.858;2023-09-08T04:10:39;96528.09;;;15.69;100.00
19023;BME280;35226;48.606;8.858;2023-09-08T04:13:05;96532.78;;;15.63;100.00
19023;BME280;35226;48.606;8.858;2023-09-08T04:15:30;96525.22;;;15.64;100.00
19023;BME280;35226;48.606;8.858;2023-09-08T04:17:56;96526.75;;;15.65;100.00
19023;BME280;35226;48.606;8.858;2023-09-08T04:20:23;96524.59;;;15.60;100.00
19023;BME280;35226;48.606;8.858;2023-09-08T04:22:48;96525.25;;;15.54;100.00
19023;BME280;35226;48.606;8.858;2023-09-08T04:25:14;96525.38;;;15.60;100.00
19023;BME280;35226;48.606;8.858;2023-09-08T04:27:39;96523.50;;;15.66;100.00
19023;BME280;35226;48.606;8.858;2023-09-08T04:30:06;96516.50;;;15.71;100.00
19023;BME280;35226;48.606;8.858;2023-09-08T04:32:32;96516.50;;;15.71;100.00
19023;BME280;35226;48.606;8.858;2023-09-08T04:34:58;96525.03;;;15.67;100.00
19023;BME280;35226;48.606;8.858;2023-09-08T04:37:24;96531.25;;;15.62;100.00
19023;BME280;35226;48.606;8.858;2023-09-08T04:39:49;96535.94;;;15.56;100.00
19023;BME280;35226;48.606;8.858;2023-09-08T04:42:15;96536.97;;;15.49;100.00
19023;BME280;35226;48.606;8.858;2023-09-08T04:44:41;96541.72;;;15.25;100.00
19023;BME280;35226;48.606;8.858;2023-09-08T04:47:07;96541.72;;;15.25;100.00
19023;BME280;35226;48.606;8.858;2023-09-08T04:49:33;96544.78;;;15.36;100.00
19023;BME280;35226;48.606;8.858;2023-09-08T04:51:58;96553.41;;;15.38;100.00
19023;BME280;35226;48.606;8.858;2023-09-08T04:54:25;96550.50;;;15.33;100.00
19023;BME280;35226;48.606;8.858;2023-09-08T04:56:54;96543.56;;;15.28;100.00
19023;BME280;35226;48.606;8.858;2023-09-08T04:59:20;96544.31;;;15.29;100.00
19023;BME280;35226;48.606;8.858;2023-09-08T05:01:46;96540.75;;;15.28;100.00
19023;BME280;35226;48.606;8.858;2023-09-08T05:04:11;96540.91;;;15.34;100.00
19023;BME280;35226;48.606;8.858;2023-09-08T05:06:37;96544.78;;;15.36;100.00
19023;BME280;35226;48.606;8.858;2023-09-08T05:09:03;96545.38;;;15.40;100.00
19023;BME280;35226;48.606;8.858;2023-09-08T05:11:29;96542.00;;;15.36;100.00
19023;BME280;35226;48.606;8.858;2023-09-08T05:13:56;96543.97;;;15.45;100.00
19023;BME280;35226;48.606;8.858;2023-09-08T05:16:23;96539.97;;;15.46;100.00
19023;BME280;35226;48.606;8.858;2023-09-08T05:19:03;96541.66;;;15.43;100.00
19023;BME280;35226;48.606;8.858;2023-09-08T05:21:33;96554.19;;;15.39;100.00
19023;BME280;35226;48.606;8.858;2023-09-08T05:23:59;96552.53;;;15.32;100.00
19023;BME280;35226;48.606;8.858;2023-09-08T05:26:25;96558.72;;;15.36;100.00
19023;BME280;35226;48.606;8.858;2023-09-08T05:28:52;96557.91;;;15.45;100.00
19023;BME280;35226;48.606;8.858;2023-09-08T05:31:17;96565.91;;;15.52;100.00
19023;BME280;35226;48.606;8.858;2023-09-08T05:33:43;96563.78;;;15.56;100.00
19023;BME280;35226;48.606;8.858;2023-09-08T05:36:09;96567.91;;;15.61;100.00
19023;BME280;35226;48.606;8.858;2023-09-08T05:38:35;96564.78;;;15.68;100.00
19023;BME280;35226;48.606;8.858;2023-09-08T05:41:00;96573.34;;;15.64;100.00
19023;BME280;35226;48.606;8.858;2023-09-08T05:43:26;96576.66;;;15.77;100.00
19023;BME280;35226;48.606;8.858;2023-09-08T05:45:52;96576.66;;;15.77;100.00
19023;BME280;35226;48.606;8.858;2023-09-08T05:48:19;96578.03;;;15.82;100.00
19023;BME280;35226;48.606;8.858;2023-09-08T05:50:45;96575.88;;;15.86;100.00
19023;BME280;35226;48.606;8.858;2023-09-08T05:53:11;96576.00;;;15.91;100.00
19023;BME280;35226;48.606;8.858;2023-09-08T05:55:37;96572.25;;;15.95;100.00
19023;BME280;35226;48.606;8.858;2023-09-08T05:58:02;96570.66;;;16.03;100.00
19023;BME280;35226;48.606;8.858;2023-09-08T06:00:28;96575.63;;;15.99;100.00
19023;BME280;35226;48.606;8.858;2023-09-08T06:02:54;96581.66;;;15.97;100.00
19023;BME280;35226;48.606;8.858;2023-09-08T06:05:20;96567.69;;;16.06;100.00
19023;BME280;35226;48.606;8.858;2023-09-08T06:07:45;96575.72;;;16.13;100.00
19023;BME280;35226;48.606;8.858;2023-09-08T06:10:11;96568.53;;;16.21;100.00
19023;BME280;35226;48.606;8.858;2023-09-08T06:12:37;96566.06;;;16.23;100.00
19023;BME280;35226;48.606;8.858;2023-09-08T06:15:03;96569.41;;;16.27;100.00
19023;BME280;35226;48.606;8.858;2023-09-08T06:17:30;96565.53;;;16.34;100.00
19023;BME280;35226;48.606;8.858;2023-09-08T06:19:55;96571.88;;;16.35;100.00
19023;BME280;35226;48.606;8.858;2023-09-08T06:22:21;96570.97;;;16.52;100.00
19023;BME280;35226;48.606;8.858;2023-09-08T06:24:47;96566.56;;;16.60;100.00
19023;BME280;35226;48.606;8.858;2023-09-08T06:27:14;96571.03;;;16.67;100.00
19023;BME280;35226;48.606;8.858;2023-09-08T06:29:40;96572.00;;;16.64;100.00
19023;BME280;35226;48.606;8.858;2023-09-08T06:32:10;96575.56;;;16.55;100.00
19023;BME280;35226;48.606;8.858;2023-09-08T06:34:37;96572.09;;;16.70;100.00
19023;BME280;35226;48.606;8.858;2023-09-08T06:37:03;96574.34;;;16.80;100.00
19023;BME280;35226;48.606;8.858;2023-09-08T06:39:29;96569.63;;;16.86;100.00
19023;BME280;35226;48.606;8.858;2023-09-08T06:41:55;96562.69;;;16.82;100.00
19023;BME280;35226;48.606;8.858;2023-09-08T06:44:21;96566.66;;;16.90;100.00
19023;BME280;35226;48.606;8.858;2023-09-08T06:46:47;96559.56;;;17.04;100.00
19023;BME280;35226;48.606;8.858;2023-09-08T06:49:13;96558.97;;;17.14;100.00
19023;BME280;35226;48.606;8.858;2023-09-08T06:51:39;96567.53;;;17.11;100.00
19023;BME280;35226;48.606;8.858;2023-09-08T06:54:05;96556.28;;;17.20;100.00
19023;BME280;35226;48.606;8.858;2023-09-08T06:56:36;96560.03;;;17.17;100.00
19023;BME280;35226;48.606;8.858;2023-09-08T06:59:03;96563.72;;;17.23;100.00
19023;BME280;35226;48.606;8.858;2023-09-08T07:01:29;96563.09;;;17.33;100.00
19023;BME280;35226;48.606;8.858;2023-09-08T07:03:54;96562.34;;;17.33;100.00
19023;BME280;35226;48.606;8.858;2023-09-08T07:06:21;96557.81;;;17.50;100.00
19023;BME280;35226;48.606;8.858;2023-09-08T07:08:49;96568.09;;;17.44;100.00
19023;BME280;35226;48.606;8.858;2023-09-08T07:11:19;96569.66;;;17.60;100.00
19023;BME280;35226;48.606;8.858;2023-09-08T07:13:45;96563.41;;;17.65;100.00
19023;BME280;35226;48.606;8.858;2023-09-08T07:16:10;96562.03;;;17.75;100.00
19023;BME280;35226;48.606;8.858;2023-09-08T07:18:37;96569.75;;;17.80;100.00
19023;BME280;35226;48.606;8.858;2023-09-08T07:21:05;96558.44;;;17.89;100.00
19023;BME280;35226;48.606;8.858;2023-09-08T07:23:31;96564.69;;;17.99;100.00
19023;BME280;35226;48.606;8.858;2023-09-08T07:25:57;96569.03;;;18.00;100.00
19023;BME280;35226;48.606;8.858;2023-09-08T07:28:27;96566.00;;;18.03;100.00
19023;BME280;35226;48.606;8.858;2023-09-08T07:31:01;96555.56;;;18.19;100.00
19023;BME280;35226;48.606;8.858;2023-09-08T07:33:28;96564.03;;;18.24;100.00
19023;BME280;35226;48.606;8.858;2023-09-08T07:35:54;96553.75;;;18.36;100.00
19023;BME280;35226;48.606;8.858;2023-09-08T07:38:19;96558.38;;;18.39;100.00
19023;BME280;35226;48.606;8.858;2023-09-08T07:40:44;96561.03;;;18.48;100.00
19023;BME280;35226;48.606;8.858;2023-09-08T07:43:10;96554.44;;;18.51;100.00
19023;BME280;35226;48.606;8.858;2023-09-08T07:45:36;96553.28;;;18.58;100.00
19023;BME280;35226;48.606;8.858;2023-09-08T07:48:02;96557.25;;;18.71;100.00
19023;BME280;35226;48.606;8.858;2023-09-08T07:50:28;96558.31;;;18.74;100.00
19023;BME280;35226;48.606;8.858;2023-09-08T07:52:56;96552.69;;;18.94;100.00
19023;BME280;35226;48.606;8.858;2023-09-08T07:55:22;96561.69;;;19.04;100.00
19023;BME280;35226;48.606;8.858;2023-09-08T07:57:49;96556.00;;;19.18;100.00
19023;BME280;35226;48.606;8.858;2023-09-08T08:00:15;96558.66;;;19.33;100.00
19023;BME280;35226;48.606;8.858;2023-09-08T08:02:49;96557.44;;;19.40;100.00
19023;BME280;35226;48.606;8.858;2023-09-08T08:05:16;96554.66;;;19.40;100.00
19023;BME280;35226;48.606;8.858;2023-09-08T08:07:43;96556.56;;;19.48;100.00
19023;BME280;35226;48.606;8.858;2023-09-08T08:10:09;96558.50;;;19.68;100.00
19023;BME280;35226;48.606;8.858;2023-09-08T08:12:37;96562.88;;;19.75;100.00
19023;BME280;35226;48.606;8.858;2023-09-08T08:15:03;96562.38;;;19.76;100.00
19023;BME280;35226;48.606;8.858;2023-09-08T08:17:30;96561.69;;;19.87;100.00
19023;BME280;35226;48.606;8.858;2023-09-08T08:19:56;96561.69;;;20.24;100.00
19023;BME280;35226;48.606;8.858;2023-09-08T08:22:24;96555.78;;;20.16;100.00
19023;BME280;35226;48.606;8.858;2023-09-08T08:24:50;96555.78;;;20.16;100.00
19023;BME280;35226;48.606;8.858;2023-09-08T08:27:15;96559.16;;;20.26;100.00
19023;BME280;35226;48.606;8.858;2023-09-08T08:29:41;96559.22;;;20.37;100.00
19023;BME280;35226;48.606;8.858;2023-09-08T08:32:06;96551.38;;;20.52;100.00
19023;BME280;35226;48.606;8.858;2023-09-08T08:34:31;96557.56;;;20.62;100.00
19023;BME280;35226;48.606;8.858;2023-09-08T08:36:57;96561.72;;;20.83;100.00
19023;BME280;35226;48.606;8.858;2023-09-08T08:39:22;96552.75;;;20.79;100.00
19023;BME280;35226;48.606;8.858;2023-09-08T08:41:48;96558.47;;;21.13;100.00
19023;BME280;35226;48.606;8.858;2023-09-08T08:44:15;96548.81;;;21.30;100.00
19023;BME280;35226;48.606;8.858;2023-09-08T08:46:43;96549.34;;;21.23;100.00
19023;BME280;35226;48.606;8.858;2023-09-08T08:49:11;96542.44;;;21.35;100.00
19023;BME280;35226;48.606;8.858;2023-09-08T08:51:38;96547.56;;;21.42;100.00
19023;BME280;35226;48.606;8.858;2023-09-08T08:54:04;96546.53;;;21.46;100.00
19023;BME280;35226;48.606;8.858;2023-09-08T08:56:31;96537.84;;;21.60;100.00
19023;BME280;35226;48.606;8.858;2023-09-08T08:59:00;96544.47;;;21.91;100.00
19023;BME280;35226;48.606;8.858;2023-09-08T09:01:27;96538.84;;;22.07;100.00
19023;BME280;35226;48.606;8.858;2023-09-08T09:03:54;96536.03;;;22.13;100.00
19023;BME280;35226;48.606;8.858;2023-09-08T09:06:20;96536.25;;;22.26;100.00
19023;BME280;35226;48.606;8.858;2023-09-08T09:08:46;96537.22;;;22.51;100.00
19023;BME280;35226;48.606;8.858;2023-09-08T09:11:12;96534.28;;;22.73;100.00
19023;BME280;35226;48.606;8.858;2023-09-08T09:13:38;96530.19;;;22.74;100.00
19023;BME280;35226;48.606;8.858;2023-09-08T09:16:05;96536.41;;;22.62;100.00
19023;BME280;35226;48.606;8.858;2023-09-08T09:18:33;96536.25;;;22.95;100.00
19023;BME280;35226;48.606;8.858;2023-09-08T09:21:00;96535.38;;;23.11;100.00
19023;BME280;35226;48.606;8.858;2023-09-08T09:23:35;96537.41;;;23.16;100.00
19023;BME280;35226;48.606;8.858;2023-09-08T09:26:02;96533.94;;;23.40;100.00
19023;BME280;35226;48.606;8.858;2023-09-08T09:28:31;96544.13;;;23.49;100.00
19023;BME280;35226;48.606;8.858;2023-09-08T09:30:56;96540.03;;;23.44;100.00
19023;BME280;35226;48.606;8.858;2023-09-08T09:33:22;96536.78;;;23.70;100.00
19023;BME280;35226;48.606;8.858;2023-09-08T09:35:50;96531.13;;;24.00;100.00
19023;BME280;35226;48.606;8.858;2023-09-08T09:38:17;96533.06;;;23.86;100.00
19023;BME280;35226;48.606;8.858;2023-09-08T09:40:45;96534.78;;;24.19;100.00
19023;BME280;35226;48.606;8.858;2023-09-08T09:43:11;96533.88;;;24.36;100.00
19023;BME280;35226;48.606;8.858;2023-09-08T09:45:38;96531.16;;;24.24;100.00
19023;BME280;35226;48.606;8.858;2023-09-08T09:48:05;96529.56;;;24.53;100.00
19023;BME280;35226;48.606;8.858;2023-09-08T09:50:41;96534.72;;;24.74;100.00
19023;BME280;35226;48.606;8.858;2023-09-08T09:53:15;96533.16;;;24.97;100.00
19023;BME280;35226;48.606;8.858;2023-09-08T09:55:43;96533.75;;;25.08;100.00
19023;BME280;35226;48.606;8.858;2023-09-08T09:58:09;96527.81;;;24.88;100.00
19023;BME280;35226;48.606;8.858;2023-09-08T10:00:36;96528.00;;;25.33;100.00
19023;BME280;35226;48.606;8.858;2023-09-08T10:03:04;96523.47;;;25.43;100.00
19023;BME280;35226;48.606;8.858;2023-09-08T10:05:30;96527.22;;;25.51;100.00
19023;BME280;35226;48.606;8.858;2023-09-08T10:07:55;96523.41;;;25.30;100.00
19023;BME280;35226;48.606;8.858;2023-09-08T10:10:21;96521.03;;;25.85;100.00
19023;BME280;35226;48.606;8.858;2023-09-08T10:12:55;96526.97;;;26.26;100.00
19023;BME280;35226;48.606;8.858;2023-09-08T10:15:23;96513.22;;;26.17;100.00
19023;BME280;35226;48.606;8.858;2023-09-08T10:17:56;96512.28;;;26.28;100.00
19023;BME280;35226;48.606;8.858;2023-09-08T10:20:27;96513.13;;;26.75;100.00
19023;BME280;35226;48.606;8.858;2023-09-08T10:23:21;96511.72;;;26.95;100.00
19023;BME280;35226;48.606;8.858;2023-09-08T10:25:50;96513.34;;;26.77;100.00
19023;BME280;35226;48.606;8.858;2023-09-08T10:28:21;96514.53;;;26.95;100.00
19023;BME280;35226;48.606;8.858;2023-09-08T10:30:47;96501.22;;;26.90;100.00
19023;BME280;35226;48.606;8.858;2023-09-08T10:33:14;96502.03;;;27.24;100.00
19023;BME280;35226;48.606;8.858;2023-09-08T10:35:40;96506.81;;;26.96;100.00
19023;BME280;35226;48.606;8.858;2023-09-08T10:38:31;96502.56;;;27.23;100.00
19023;BME280;35226;48.606;8.858;2023-09-08T10:43:57;96497.66;;;27.57;100.00
19023;BME280;35226;48.606;8.858;2023-09-08T10:46:26;96498.03;;;28.03;100.00
19023;BME280;35226;48.606;8.858;2023-09-08T10:48:53;96498.47;;;28.64;99.04
19023;BME280;35226;48.606;8.858;2023-09-08T10:51:20;96499.75;;;28.55;100.00
19023;BME280;35226;48.606;8.858;2023-09-08T10:53:48;96500.38;;;29.05;92.39
19023;BME280;35226;48.606;8.858;2023-09-08T10:56:15;96489.69;;;29.41;84.17
19023;BME280;35226;48.606;8.858;2023-09-08T10:58:42;96490.50;;;29.88;87.47
19023;BME280;35226;48.606;8.858;2023-09-08T11:01:19;96493.97;;;30.01;82.14
19023;BME280;35226;48.606;8.858;2023-09-08T11:03:51;96489.53;;;30.38;80.28
19023;BME280;35226;48.606;8.858;2023-09-08T11:06:18;96485.94;;;30.30;83.57
19023;BME280;35226;48.606;8.858;2023-09-08T11:08:44;96492.97;;;30.29;85.63
19023;BME280;35226;48.606;8.858;2023-09-08T11:11:12;96486.56;;;30.06;90.68
19023;BME280;35226;48.606;8.858;2023-09-08T11:13:38;96484.84;;;29.95;90.45
19023;BME280;35226;48.606;8.858;2023-09-08T11:16:05;96491.25;;;29.88;88.34
19023;BME280;35226;48.606;8.858;2023-09-08T11:18:32;96487.50;;;30.16;76.40
19023;BME280;35226;48.606;8.858;2023-09-08T11:21:02;96482.50;;;30.55;76.00
19023;BME280;35226;48.606;8.858;2023-09-08T11:23:28;96488.06;;;30.22;79.32
19023;BME280;35226;48.606;8.858;2023-09-08T11:25:54;96489.19;;;30.19;76.73
19023;BME280;35226;48.606;8.858;2023-09-08T11:28:24;96484.97;;;30.50;78.63
19023;BME280;35226;48.606;8.858;2023-09-08T11:30:50;96484.53;;;30.69;79.93
19023;BME280;35226;48.606;8.858;2023-09-08T11:33:16;96484.00;;;30.63;70.93
19023;BME280;35226;48.606;8.858;2023-09-08T11:35:43;96479.06;;;30.64;76.30
19023;BME280;35226;48.606;8.858;2023-09-08T11:38:10;96489.06;;;30.80;74.34
19023;BME280;35226;48.606;8.858;2023-09-08T11:40:36;96483.81;;;30.61;71.26
19023;BME280;35226;48.606;8.858;2023-09-08T11:43:03;96481.19;;;31.43;71.86
19023;BME280;35226;48.606;8.858;2023-09-08T11:45:30;96479.22;;;31.21;65.15
19023;BME280;35226;48.606;8.858;2023-09-08T11:47:56;96484.31;;;31.30;68.63
19023;BME280;35226;48.606;8.858;2023-09-08T11:50:24;96486.16;;;31.35;73.14
19023;BME280;35226;48.606;8.858;2023-09-08T11:52:51;96476.50;;;31.31;71.20
19023;BME280;35226;48.606;8.858;2023-09-08T11:55:18;96480.97;;;31.49;66.23
19023;BME280;35226;48.606;8.858;2023-09-08T11:57:45;96490.31;;;31.74;59.95
19023;BME280;35226;48.606;8.858;2023-09-08T12:00:12;96485.44;;;31.67;65.25
19023;BME280;35226;48.606;8.858;2023-09-08T12:02:45;96481.31;;;31.53;61.09
19023;BME280;35226;48.606;8.858;2023-09-08T12:05:12;96485.25;;;31.65;64.71
19023;BME280;35226;48.606;8.858;2023-09-08T12:07:39;96486.50;;;31.79;62.79
19023;BME280;35226;48.606;8.858;2023-09-08T12:10:11;96475.06;;;31.79;62.90
19023;BME280;35226;48.606;8.858;2023-09-08T12:12:50;96469.72;;;32.25;56.27
19023;BME280;35226;48.606;8.858;2023-09-08T12:15:39;96473.34;;;32.43;59.16
19023;BME280;35226;48.606;8.858;2023-09-08T12:18:10;96475.03;;;32.46;56.25
19023;BME280;35226;48.606;8.858;2023-09-08T12:20:36;96469.84;;;32.87;54.87
19023;BME280;35226;48.606;8.858;2023-09-08T12:23:04;96468.25;;;32.59;54.15
19023;BME280;35226;48.606;8.858;2023-09-08T12:25:30;96469.91;;;32.96;54.32
19023;BME280;35226;48.606;8.858;2023-09-08T12:27:59;96468.84;;;32.75;53.24
19023;BME280;35226;48.606;8.858;2023-09-08T12:30:25;96464.63;;;32.76;55.02
19023;BME280;35226;48.606;8.858;2023-09-08T12:32:58;96461.25;;;32.87;55.31
19023;BME280;35226;48.606;8.858;2023-09-08T12:35:25;96457.50;;;33.11;54.61
19023;BME280;35226;48.606;8.858;2023-09-08T12:37:58;96459.53;;;33.01;54.71
19023;BME280;35226;48.606;8.858;2023-09-08T12:40:30;96465.88;;;32.82;52.79
19023;BME280;35226;48.606;8.858;2023-09-08T12:42:56;96456.81;;;32.42;51.77
19023;BME280;35226;48.606;8.858;2023-09-08T12:45:25;96455.81;;;33.25;51.89
19023;BME280;35226;48.606;8.858;2023-09-08T12:47:50;96450.94;;;33.18;50.65
19023;BME280;35226;48.606;8.858;2023-09-08T12:50:17;96459.97;;;33.41;51.34
19023;BME280;35226;48.606;8.858;2023-09-08T12:52:42;96454.25;;;33.41;48.96
19023;BME280;35226;48.606;8.858;2023-09-08T12:55:08;96453.69;;;33.79;46.74
19023;BME280;35226;48.606;8.858;2023-09-08T12:57:35;96455.13;;;33.98;46.73